sensor_id;sensor_type;location;lat;lon;timestamp;P1;durP1;ratioP1;P2;durP2;ratioP2
16354;SDS011;8287;51.644;8.494;2023-04-25T00:02:05;7.90;;;5.05;;
16354;SDS011;8287;51.644;8.494;2023-04-25T00:04:33;7.45;;;4.80;;
16354;SDS011;8287;51.644;8.494;2023-04-25T00:06:59;13.27;;;4.78;;
16354;SDS011;8287;51.644;8.494;2023-04-25T00:09:27;10.25;;;4.57;;
16354;SDS011;8287;51.644;8.494;2023-04-25T00:11:54;11.80;;;5.30;;
16354;SDS011;8287;51.644;8.494;2023-04-25T00:14:20;12.52;;;5.38;;
16354;SDS011;8287;51.644;8.494;2023-04-25T00:16:47;10.63;;;6.15;;
16354;SDS011;8287;51.644;8.494;2023-04-25T00:19:16;10.57;;;5.32;;
16354;SDS011;8287;51.644;8.494;2023-04-25T00:21:44;10.25;;;5.15;;
16354;SDS011;8287;51.644;8.494;2023-04-25T00:24:11;12.52;;;5.93;;
16354;SDS011;8287;51.644;8.494;2023-04-25T00:26:38;12.07;;;6.00;;
16354;SDS011;8287;51.644;8.494;2023-04-25T00:29:04;9.52;;;5.05;;
16354;SDS011;8287;51.644;8.494;2023-04-25T00:31:31;12.43;;;5.82;;
16354;SDS011;8287;51.644;8.494;2023-04-25T00:33:58;16.05;;;7.00;;
16354;SDS011;8287;51.644;8.494;2023-04-25T00:36:24;11.70;;;6.25;;
16354;SDS011;8287;51.644;8.494;2023-04-25T00:38:52;12.27;;;6.68;;
16354;SDS011;8287;51.644;8.494;2023-04-25T00:41:19;12.50;;;6.50;;
16354;SDS011;8287;51.644;8.494;2023-04-25T00:43:46;10.75;;;6.35;;
16354;SDS011;8287;51.644;8.494;2023-04-25T00:46:14;10.43;;;5.97;;
16354;SDS011;8287;51.644;8.494;2023-04-25T00:48:40;10.07;;;5.55;;
16354;SDS011;8287;51.644;8.494;2023-04-25T00:51:07;11.93;;;5.18;;
16354;SDS011;8287;51.644;8.494;2023-04-25T00:53:35;13.50;;;5.97;;
16354;SDS011;8287;51.644;8.494;2023-04-25T00:56:04;20.80;;;6.07;;
16354;SDS011;8287;51.644;8.494;2023-04-25T00:58:31;10.00;;;5.45;;
16354;SDS011;8287;51.644;8.494;2023-04-25T01:00:58;13.70;;;6.45;;
16354;SDS011;8287;51.644;8.494;2023-04-25T01:03:25;13.82;;;6.00;;
16354;SDS011;8287;51.644;8.494;2023-04-25T01:05:53;14.43;;;6.43;;
16354;SDS011;8287;51.644;8.494;2023-04-25T01:08:20;13.90;;;5.78;;
16354;SDS011;8287;51.644;8.494;2023-04-25T01:10:49;14.20;;;5.55;;
16354;SDS011;8287;51.644;8.494;2023-04-25T01:13:17;9.70;;;5.47;;
16354;SDS011;8287;51.644;8.494;2023-04-25T01:15:45;16.45;;;6.43;;
16354;SDS011;8287;51.644;8.494;2023-04-25T01:18:11;13.35;;;5.65;;
16354;SDS011;8287;51.644;8.494;2023-04-25T01:20:38;11.27;;;5.88;;
16354;SDS011;8287;51.644;8.494;2023-04-25T01:23:08;15.32;;;7.20;;
16354;SDS011;8287;51.644;8.494;2023-04-25T01:25:35;10.13;;;6.07;;
16354;SDS011;8287;51.644;8.494;2023-04-25T01:28:02;16.92;;;6.25;;
16354;SDS011;8287;51.644;8.494;2023-04-25T01:30:30;14.70;;;5.95;;
16354;SDS011;8287;51.644;8.494;2023-04-25T01:32:57;12.45;;;5.90;;
16354;SDS011;8287;51.644;8.494;2023-04-25T01:35:25;15.00;;;6.32;;
16354;SDS011;8287;51.644;8.494;2023-04-25T01:37:51;12.75;;;7.10;;
16354;SDS011;8287;51.644;8.494;2023-04-25T01:40:19;13.63;;;6.28;;
16354;SDS011;8287;51.644;8.494;2023-04-25T01:42:48;17.30;;;6.57;;
16354;SDS011;8287;51.644;8.494;2023-04-25T01:45:14;15.30;;;7.38;;
16354;SDS011;8287;51.644;8.494;2023-04-25T01:47:41;15.20;;;5.95;;
16354;SDS011;8287;51.644;8.494;2023-04-25T01:50:12;16.08;;;7.25;;
16354;SDS011;8287;51.644;8.494;2023-04-25T01:52:38;13.23;;;6.72;;
16354;SDS011;8287;51.644;8.494;2023-04-25T01:55:05;18.98;;;7.13;;
16354;SDS011;8287;51.644;8.494;2023-04-25T01:57:34;14.48;;;7.13;;
16354;SDS011;8287;51.644;8.494;2023-04-25T02:00:01;16.27;;;6.80;;
16354;SDS011;8287;51.644;8.494;2023-04-25T02:02:31;15.27;;;7.53;;
16354;SDS011;8287;51.644;8.494;2023-04-25T02:04:58;12.82;;;7.25;;
16354;SDS011;8287;51.644;8.494;2023-04-25T02:07:25;13.30;;;7.22;;
16354;SDS011;8287;51.644;8.494;2023-04-25T02:09:52;13.82;;;7.85;;
16354;SDS011;8287;51.644;8.494;2023-04-25T02:12:18;15.52;;;7.10;;
16354;SDS011;8287;51.644;8.494;2023-04-25T02:14:46;17.38;;;7.10;;
16354;SDS011;8287;51.644;8.494;2023-04-25T02:17:13;11.90;;;7.85;;
16354;SDS011;8287;51.644;8.494;2023-04-25T02:19:41;12.38;;;7.45;;
16354;SDS011;8287;51.644;8.494;2023-04-25T02:22:07;12.13;;;7.25;;
16354;SDS011;8287;51.644;8.494;2023-04-25T02:24:34;14.13;;;7.60;;
16354;SDS011;8287;51.644;8.494;2023-04-25T02:27:00;15.43;;;8.65;;
16354;SDS011;8287;51.644;8.494;2023-04-25T02:29:27;13.63;;;7.88;;
16354;SDS011;8287;51.644;8.494;2023-04-25T02:31:57;21.70;;;8.52;;
16354;SDS011;8287;51.644;8.494;2023-04-25T02:34:23;13.55;;;8.18;;
16354;SDS011;8287;51.644;8.494;2023-04-25T02:36:50;14.90;;;7.97;;
16354;SDS011;8287;51.644;8.494;2023-04-25T02:39:16;14.98;;;8.77;;
16354;SDS011;8287;51.644;8.494;2023-04-25T02:41:43;15.75;;;8.98;;
16354;SDS011;8287;51.644;8.494;2023-04-25T02:44:10;13.57;;;8.02;;
16354;SDS011;8287;51.644;8.494;2023-04-25T02:46:37;15.98;;;8.43;;
16354;SDS011;8287;51.644;8.494;2023-04-25T02:49:04;12.77;;;7.90;;
16354;SDS011;8287;51.644;8.494;2023-04-25T02:51:31;12.98;;;7.80;;
16354;SDS011;8287;51.644;8.494;2023-04-25T02:53:58;16.55;;;8.38;;
16354;SDS011;8287;51.644;8.494;2023-04-25T02:56:24;12.15;;;8.82;;
16354;SDS011;8287;51.644;8.494;2023-04-25T02:58:52;21.70;;;9.45;;
16354;SDS011;8287;51.644;8.494;2023-04-25T03:01:18;15.70;;;9.30;;
16354;SDS011;8287;51.644;8.494;2023-04-25T03:03:45;15.68;;;9.80;;
16354;SDS011;8287;51.644;8.494;2023-04-25T03:06:13;16.58;;;9.25;;
16354;SDS011;8287;51.644;8.494;2023-04-25T03:08:39;17.85;;;9.18;;
16354;SDS011;8287;51.644;8.494;2023-04-25T03:11:06;18.08;;;9.55;;
16354;SDS011;8287;51.644;8.494;2023-04-25T03:13:33;17.42;;;9.63;;
16354;SDS011;8287;51.644;8.494;2023-04-25T03:16:00;19.00;;;9.20;;
16354;SDS011;8287;51.644;8.494;2023-04-25T03:18:26;15.00;;;8.75;;
16354;SDS011;8287;51.644;8.494;2023-04-25T03:20:53;19.38;;;9.52;;
16354;SDS011;8287;51.644;8.494;2023-04-25T03:23:21;15.18;;;9.77;;
16354;SDS011;8287;51.644;8.494;2023-04-25T03:25:48;14.82;;;9.18;;
16354;SDS011;8287;51.644;8.494;2023-04-25T03:28:14;14.80;;;8.93;;
16354;SDS011;8287;51.644;8.494;2023-04-25T03:30:41;14.63;;;9.38;;
16354;SDS011;8287;51.644;8.494;2023-04-25T03:33:07;16.48;;;9.45;;
16354;SDS011;8287;51.644;8.494;2023-04-25T03:35:34;10.23;;;8.15;;
16354;SDS011;8287;51.644;8.494;2023-04-25T03:38:00;12.48;;;8.80;;
16354;SDS011;8287;51.644;8.494;2023-04-25T03:40:28;13.75;;;8.48;;
16354;SDS011;8287;51.644;8.494;2023-04-25T03:42:55;14.70;;;8.25;;
16354;SDS011;8287;51.644;8.494;2023-04-25T03:45:21;14.32;;;8.55;;
16354;SDS011;8287;51.644;8.494;2023-04-25T03:47:48;11.98;;;7.80;;
16354;SDS011;8287;51.644;8.494;2023-04-25T03:50:14;12.70;;;7.65;;
16354;SDS011;8287;51.644;8.494;2023-04-25T03:52:41;15.10;;;7.70;;
16354;SDS011;8287;51.644;8.494;2023-04-25T03:55:08;17.30;;;7.55;;
16354;SDS011;8287;51.644;8.494;2023-04-25T03:57:37;10.68;;;6.28;;
16354;SDS011;8287;51.644;8.494;2023-04-25T04:00:03;12.32;;;7.30;;
16354;SDS011;8287;51.644;8.494;2023-04-25T04:02:31;8.40;;;6.35;;
16354;SDS011;8287;51.644;8.494;2023-04-25T04:04:59;7.72;;;6.07;;
16354;SDS011;8287;51.644;8.494;2023-04-25T04:07:25;9.25;;;6.60;;
16354;SDS011;8287;51.644;8.494;2023-04-25T04:09:52;12.90;;;6.75;;
16354;SDS011;8287;51.644;8.494;2023-04-25T04:12:18;10.68;;;5.93;;
16354;SDS011;8287;51.644;8.494;2023-04-25T04:14:46;8.30;;;6.25;;
16354;SDS011;8287;51.644;8.494;2023-04-25T04:17:13;7.43;;;5.20;;
16354;SDS011;8287;51.644;8.494;2023-04-25T04:19:39;11.07;;;6.32;;
16354;SDS011;8287;51.644;8.494;2023-04-25T04:22:06;10.98;;;6.13;;
16354;SDS011;8287;51.644;8.494;2023-04-25T04:24:32;10.77;;;6.15;;
16354;SDS011;8287;51.644;8.494;2023-04-25T04:26:59;9.70;;;6.20;;
16354;SDS011;8287;51.644;8.494;2023-04-25T04:29:25;12.57;;;6.53;;
16354;SDS011;8287;51.644;8.494;2023-04-25T04:31:53;12.30;;;6.68;;
16354;SDS011;8287;51.644;8.494;2023-04-25T04:34:20;11.90;;;6.45;;
16354;SDS011;8287;51.644;8.494;2023-04-25T04:36:47;10.55;;;5.80;;
16354;SDS011;8287;51.644;8.494;2023-04-25T04:39:13;8.52;;;5.90;;
16354;SDS011;8287;51.644;8.494;2023-04-25T04:41:40;11.65;;;5.93;;
16354;SDS011;8287;51.644;8.494;2023-04-25T04:44:07;7.70;;;5.72;;
16354;SDS011;8287;51.644;8.494;2023-04-25T04:46:35;11.98;;;5.55;;
16354;SDS011;8287;51.644;8.494;2023-04-25T04:49:04;9.60;;;4.75;;
16354;SDS011;8287;51.644;8.494;2023-04-25T04:51:31;8.07;;;5.10;;
16354;SDS011;8287;51.644;8.494;2023-04-25T04:53:58;11.38;;;5.65;;
16354;SDS011;8287;51.644;8.494;2023-04-25T04:56:27;13.10;;;5.72;;
16354;SDS011;8287;51.644;8.494;2023-04-25T04:58:54;11.38;;;4.88;;
16354;SDS011;8287;51.644;8.494;2023-04-25T05:01:21;9.57;;;4.65;;
16354;SDS011;8287;51.644;8.494;2023-04-25T05:03:48;10.27;;;4.95;;
16354;SDS011;8287;51.644;8.494;2023-04-25T05:06:16;8.88;;;4.55;;
16354;SDS011;8287;51.644;8.494;2023-04-25T05:08:42;10.65;;;4.47;;
16354;SDS011;8287;51.644;8.494;2023-04-25T05:11:09;11.48;;;4.28;;
16354;SDS011;8287;51.644;8.494;2023-04-25T05:13:36;9.07;;;4.43;;
16354;SDS011;8287;51.644;8.494;2023-04-25T05:16:02;13.38;;;4.45;;
16354;SDS011;8287;51.644;8.494;2023-04-25T05:18:29;11.88;;;5.35;;
16354;SDS011;8287;51.644;8.494;2023-04-25T05:20:56;10.40;;;4.25;;
16354;SDS011;8287;51.644;8.494;2023-04-25T05:23:24;7.68;;;4.00;;
16354;SDS011;8287;51.644;8.494;2023-04-25T05:25:52;7.60;;;4.70;;
16354;SDS011;8287;51.644;8.494;2023-04-25T05:28:19;15.70;;;5.45;;
16354;SDS011;8287;51.644;8.494;2023-04-25T05:30:46;8.10;;;4.93;;
16354;SDS011;8287;51.644;8.494;2023-04-25T05:33:12;13.90;;;5.05;;
16354;SDS011;8287;51.644;8.494;2023-04-25T05:35:39;9.00;;;4.53;;
16354;SDS011;8287;51.644;8.494;2023-04-25T05:38:06;10.48;;;5.07;;
16354;SDS011;8287;51.644;8.494;2023-04-25T05:40:34;12.70;;;4.35;;
16354;SDS011;8287;51.644;8.494;2023-04-25T05:43:00;12.40;;;4.45;;
16354;SDS011;8287;51.644;8.494;2023-04-25T05:45:27;11.95;;;5.43;;
16354;SDS011;8287;51.644;8.494;2023-04-25T05:47:54;8.75;;;3.78;;
16354;SDS011;8287;51.644;8.494;2023-04-25T05:50:20;13.52;;;4.20;;
16354;SDS011;8287;51.644;8.494;2023-04-25T05:52:47;9.52;;;4.60;;
16354;SDS011;8287;51.644;8.494;2023-04-25T05:55:13;10.90;;;4.07;;
16354;SDS011;8287;51.644;8.494;2023-04-25T05:57:42;12.15;;;4.65;;
16354;SDS011;8287;51.644;8.494;2023-04-25T06:00:11;9.90;;;3.28;;
16354;SDS011;8287;51.644;8.494;2023-04-25T06:02:40;11.35;;;3.47;;
16354;SDS011;8287;51.644;8.494;2023-04-25T06:05:06;16.23;;;4.00;;
16354;SDS011;8287;51.644;8.494;2023-04-25T06:07:34;15.95;;;3.60;;
16354;SDS011;8287;51.644;8.494;2023-04-25T06:10:00;14.63;;;3.55;;
16354;SDS011;8287;51.644;8.494;2023-04-25T06:12:27;6.13;;;3.15;;
16354;SDS011;8287;51.644;8.494;2023-04-25T06:14:55;8.40;;;4.07;;
16354;SDS011;8287;51.644;8.494;2023-04-25T06:17:22;10.48;;;4.05;;
16354;SDS011;8287;51.644;8.494;2023-04-25T06:19:48;15.45;;;3.70;;
16354;SDS011;8287;51.644;8.494;2023-04-25T06:22:15;17.20;;;3.60;;
16354;SDS011;8287;51.644;8.494;2023-04-25T06:24:41;10.43;;;3.97;;
16354;SDS011;8287;51.644;8.494;2023-04-25T06:27:08;11.95;;;3.97;;
16354;SDS011;8287;51.644;8.494;2023-04-25T06:29:34;14.02;;;4.10;;
16354;SDS011;8287;51.644;8.494;2023-04-25T06:32:02;14.25;;;5.95;;
16354;SDS011;8287;51.644;8.494;2023-04-25T06:34:29;10.40;;;3.50;;
16354;SDS011;8287;51.644;8.494;2023-04-25T06:36:56;13.30;;;4.70;;
16354;SDS011;8287;51.644;8.494;2023-04-25T06:39:23;7.97;;;3.47;;
16354;SDS011;8287;51.644;8.494;2023-04-25T06:41:50;7.75;;;3.88;;
16354;SDS011;8287;51.644;8.494;2023-04-25T06:44:17;11.77;;;4.35;;
16354;SDS011;8287;51.644;8.494;2023-04-25T06:46:43;16.55;;;4.85;;
16354;SDS011;8287;51.644;8.494;2023-04-25T06:49:11;15.50;;;5.05;;
16354;SDS011;8287;51.644;8.494;2023-04-25T06:51:38;11.70;;;4.53;;
16354;SDS011;8287;51.644;8.494;2023-04-25T06:54:05;10.10;;;4.03;;
16354;SDS011;8287;51.644;8.494;2023-04-25T06:56:31;13.50;;;3.75;;
16354;SDS011;8287;51.644;8.494;2023-04-25T06:58:58;11.63;;;3.85;;
16354;SDS011;8287;51.644;8.494;2023-04-25T07:01:25;16.92;;;3.95;;
16354;SDS011;8287;51.644;8.494;2023-04-25T07:03:52;16.75;;;4.50;;
16354;SDS011;8287;51.644;8.494;2023-04-25T07:06:20;14.50;;;3.75;;
16354;SDS011;8287;51.644;8.494;2023-04-25T07:08:46;11.15;;;3.70;;
16354;SDS011;8287;51.644;8.494;2023-04-25T07:11:13;10.45;;;4.10;;
16354;SDS011;8287;51.644;8.494;2023-04-25T07:13:40;12.25;;;3.88;;
16354;SDS011;8287;51.644;8.494;2023-04-25T07:16:06;11.23;;;3.72;;
16354;SDS011;8287;51.644;8.494;2023-04-25T07:18:33;16.33;;;3.47;;
16354;SDS011;8287;51.644;8.494;2023-04-25T07:20:59;11.85;;;3.38;;
16354;SDS011;8287;51.644;8.494;2023-04-25T07:23:27;8.23;;;3.33;;
16354;SDS011;8287;51.644;8.494;2023-04-25T07:25:55;11.13;;;3.70;;
16354;SDS011;8287;51.644;8.494;2023-04-25T07:28:21;10.68;;;3.22;;
16354;SDS011;8287;51.644;8.494;2023-04-25T07:30:48;13.90;;;3.63;;
16354;SDS011;8287;51.644;8.494;2023-04-25T07:33:14;16.33;;;3.75;;
16354;SDS011;8287;51.644;8.494;2023-04-25T07:35:41;9.20;;;2.47;;
16354;SDS011;8287;51.644;8.494;2023-04-25T07:38:08;11.05;;;3.25;;
16354;SDS011;8287;51.644;8.494;2023-04-25T07:40:36;9.82;;;2.88;;
16354;SDS011;8287;51.644;8.494;2023-04-25T07:43:03;10.43;;;3.85;;
16354;SDS011;8287;51.644;8.494;2023-04-25T07:45:29;13.20;;;3.67;;
16354;SDS011;8287;51.644;8.494;2023-04-25T07:47:56;12.75;;;3.92;;
16354;SDS011;8287;51.644;8.494;2023-04-25T07:50:22;15.05;;;3.70;;
16354;SDS011;8287;51.644;8.494;2023-04-25T07:52:49;9.70;;;3.38;;
16354;SDS011;8287;51.644;8.494;2023-04-25T07:55:16;12.30;;;3.97;;
16354;SDS011;8287;51.644;8.494;2023-04-25T07:57:44;8.30;;;2.92;;
16354;SDS011;8287;51.644;8.494;2023-04-25T08:00:11;6.35;;;2.90;;
16354;SDS011;8287;51.644;8.494;2023-04-25T08:02:39;10.45;;;2.70;;
16354;SDS011;8287;51.644;8.494;2023-04-25T08:05:06;10.60;;;3.40;;
16354;SDS011;8287;51.644;8.494;2023-04-25T08:07:36;10.80;;;3.25;;
16354;SDS011;8287;51.644;8.494;2023-04-25T08:10:04;12.98;;;3.25;;
16354;SDS011;8287;51.644;8.494;2023-04-25T08:12:31;9.13;;;3.30;;
16354;SDS011;8287;51.644;8.494;2023-04-25T08:14:59;7.30;;;2.65;;
16354;SDS011;8287;51.644;8.494;2023-04-25T08:17:25;7.93;;;2.92;;
16354;SDS011;8287;51.644;8.494;2023-04-25T08:19:52;7.28;;;3.13;;
16354;SDS011;8287;51.644;8.494;2023-04-25T08:22:19;14.68;;;3.15;;
16354;SDS011;8287;51.644;8.494;2023-04-25T08:24:45;7.57;;;2.55;;
16354;SDS011;8287;51.644;8.494;2023-04-25T08:27:12;9.60;;;2.75;;
16354;SDS011;8287;51.644;8.494;2023-04-25T08:29:38;12.85;;;2.72;;
16354;SDS011;8287;51.644;8.494;2023-04-25T08:32:06;10.27;;;2.38;;
16354;SDS011;8287;51.644;8.494;2023-04-25T08:34:33;3.67;;;1.73;;
16354;SDS011;8287;51.644;8.494;2023-04-25T08:36:59;12.05;;;2.30;;
16354;SDS011;8287;51.644;8.494;2023-04-25T08:39:26;10.85;;;1.98;;
16354;SDS011;8287;51.644;8.494;2023-04-25T08:41:53;10.75;;;2.88;;
16354;SDS011;8287;51.644;8.494;2023-04-25T08:44:19;7.40;;;2.28;;
16354;SDS011;8287;51.644;8.494;2023-04-25T08:46:47;3.75;;;2.05;;
16354;SDS011;8287;51.644;8.494;2023-04-25T08:49:16;5.20;;;1.67;;
16354;SDS011;8287;51.644;8.494;2023-04-25T08:51:44;5.85;;;1.90;;
16354;SDS011;8287;51.644;8.494;2023-04-25T08:54:12;6.50;;;1.67;;
16354;SDS011;8287;51.644;8.494;2023-04-25T08:56:40;6.30;;;2.03;;
16354;SDS011;8287;51.644;8.494;2023-04-25T08:59:09;11.00;;;2.85;;
16354;SDS011;8287;51.644;8.494;2023-04-25T09:01:37;7.68;;;1.90;;
16354;SDS011;8287;51.644;8.494;2023-04-25T09:04:03;9.43;;;1.85;;
16354;SDS011;8287;51.644;8.494;2023-04-25T09:06:31;9.23;;;3.42;;
16354;SDS011;8287;51.644;8.494;2023-04-25T09:09:01;7.55;;;2.00;;
16354;SDS011;8287;51.644;8.494;2023-04-25T09:11:30;3.00;;;1.52;;
16354;SDS011;8287;51.644;8.494;2023-04-25T09:14:09;5.00;;;1.80;;
16354;SDS011;8287;51.644;8.494;2023-04-25T09:16:47;7.25;;;1.70;;
16354;SDS011;8287;51.644;8.494;2023-04-25T09:19:25;6.25;;;1.90;;
16354;SDS011;8287;51.644;8.494;2023-04-25T09:21:54;6.68;;;2.20;;
16354;SDS011;8287;51.644;8.494;2023-04-25T09:24:29;6.25;;;1.80;;
16354;SDS011;8287;51.644;8.494;2023-04-25T09:26:57;5.80;;;1.70;;
16354;SDS011;8287;51.644;8.494;2023-04-25T09:29:28;6.05;;;1.75;;
16354;SDS011;8287;51.644;8.494;2023-04-25T09:32:10;3.08;;;1.75;;
16354;SDS011;8287;51.644;8.494;2023-04-25T09:34:41;5.45;;;1.67;;
16354;SDS011;8287;51.644;8.494;2023-04-25T09:37:10;4.75;;;1.92;;
16354;SDS011;8287;51.644;8.494;2023-04-25T09:39:37;8.70;;;2.20;;
16354;SDS011;8287;51.644;8.494;2023-04-25T09:42:04;4.35;;;1.58;;
16354;SDS011;8287;51.644;8.494;2023-04-25T09:44:30;10.88;;;2.55;;
16354;SDS011;8287;51.644;8.494;2023-04-25T09:46:57;4.75;;;1.48;;
16354;SDS011;8287;51.644;8.494;2023-04-25T09:49:24;5.40;;;1.45;;
16354;SDS011;8287;51.644;8.494;2023-04-25T09:51:55;3.70;;;1.30;;
16354;SDS011;8287;51.644;8.494;2023-04-25T09:54:24;7.18;;;1.90;;
16354;SDS011;8287;51.644;8.494;2023-04-25T09:56:51;4.25;;;1.73;;
16354;SDS011;8287;51.644;8.494;2023-04-25T09:59:19;7.38;;;1.70;;
16354;SDS011;8287;51.644;8.494;2023-04-25T10:01:47;3.67;;;1.20;;
16354;SDS011;8287;51.644;8.494;2023-04-25T10:04:16;5.10;;;1.65;;
16354;SDS011;8287;51.644;8.494;2023-04-25T10:06:47;6.35;;;1.85;;
16354;SDS011;8287;51.644;8.494;2023-04-25T10:09:15;5.90;;;1.70;;
16354;SDS011;8287;51.644;8.494;2023-04-25T10:11:44;4.50;;;2.17;;
16354;SDS011;8287;51.644;8.494;2023-04-25T10:14:12;6.28;;;1.83;;
16354;SDS011;8287;51.644;8.494;2023-04-25T10:16:40;9.07;;;2.00;;
16354;SDS011;8287;51.644;8.494;2023-04-25T10:19:08;4.10;;;1.73;;
16354;SDS011;8287;51.644;8.494;2023-04-25T10:21:35;7.47;;;1.98;;
16354;SDS011;8287;51.644;8.494;2023-04-25T10:24:05;4.15;;;1.58;;
16354;SDS011;8287;51.644;8.494;2023-04-25T10:26:32;6.22;;;2.03;;
16354;SDS011;8287;51.644;8.494;2023-04-25T10:29:01;10.20;;;1.45;;
16354;SDS011;8287;51.644;8.494;2023-04-25T10:31:29;4.13;;;1.20;;
16354;SDS011;8287;51.644;8.494;2023-04-25T10:33:56;7.22;;;1.75;;
16354;SDS011;8287;51.644;8.494;2023-04-25T10:36:24;5.10;;;1.63;;
16354;SDS011;8287;51.644;8.494;2023-04-25T10:38:52;5.78;;;1.92;;
16354;SDS011;8287;51.644;8.494;2023-04-25T10:41:19;5.15;;;2.35;;
16354;SDS011;8287;51.644;8.494;2023-04-25T10:43:48;5.20;;;1.98;;
16354;SDS011;8287;51.644;8.494;2023-04-25T10:46:17;4.38;;;2.33;;
16354;SDS011;8287;51.644;8.494;2023-04-25T10:48:46;7.20;;;1.95;;
16354;SDS011;8287;51.644;8.494;2023-04-25T10:51:18;6.05;;;2.00;;
16354;SDS011;8287;51.644;8.494;2023-04-25T10:53:45;8.15;;;2.13;;
16354;SDS011;8287;51.644;8.494;2023-04-25T10:56:16;2.35;;;1.92;;
16354;SDS011;8287;51.644;8.494;2023-04-25T10:58:43;7.10;;;2.35;;
16354;SDS011;8287;51.644;8.494;2023-04-25T11:01:10;6.43;;;2.22;;
16354;SDS011;8287;51.644;8.494;2023-04-25T11:03:41;4.75;;;1.70;;
16354;SDS011;8287;51.644;8.494;2023-04-25T11:06:11;3.80;;;1.83;;
16354;SDS011;8287;51.644;8.494;2023-04-25T11:08:47;4.00;;;1.30;;
16354;SDS011;8287;51.644;8.494;2023-04-25T11:11:15;2.50;;;1.70;;
16354;SDS011;8287;51.644;8.494;2023-04-25T11:13:42;3.95;;;1.60;;
16354;SDS011;8287;51.644;8.494;2023-04-25T11:16:08;3.03;;;1.80;;
16354;SDS011;8287;51.644;8.494;2023-04-25T11:18:35;3.53;;;1.65;;
16354;SDS011;8287;51.644;8.494;2023-04-25T11:21:04;3.40;;;1.45;;
16354;SDS011;8287;51.644;8.494;2023-04-25T11:23:32;3.90;;;1.88;;
16354;SDS011;8287;51.644;8.494;2023-04-25T11:25:58;7.40;;;2.28;;
16354;SDS011;8287;51.644;8.494;2023-04-25T11:28:26;3.78;;;1.88;;
16354;SDS011;8287;51.644;8.494;2023-04-25T11:30:53;5.03;;;1.40;;
16354;SDS011;8287;51.644;8.494;2023-04-25T11:33:22;3.95;;;1.50;;
16354;SDS011;8287;51.644;8.494;2023-04-25T11:35:50;4.45;;;1.50;;
16354;SDS011;8287;51.644;8.494;2023-04-25T11:38:18;8.43;;;1.83;;
16354;SDS011;8287;51.644;8.494;2023-04-25T11:40:49;7.35;;;1.95;;
16354;SDS011;8287;51.644;8.494;2023-04-25T11:43:16;2.67;;;1.10;;
16354;SDS011;8287;51.644;8.494;2023-04-25T11:45:45;5.10;;;1.60;;
16354;SDS011;8287;51.644;8.494;2023-04-25T11:48:12;6.78;;;1.92;;
16354;SDS011;8287;51.644;8.494;2023-04-25T11:50:39;5.82;;;1.55;;
16354;SDS011;8287;51.644;8.494;2023-04-25T11:53:06;2.30;;;1.30;;
16354;SDS011;8287;51.644;8.494;2023-04-25T11:55:34;3.67;;;1.50;;
16354;SDS011;8287;51.644;8.494;2023-04-25T11:58:02;3.80;;;1.45;;
16354;SDS011;8287;51.644;8.494;2023-04-25T12:00:29;3.60;;;1.83;;
16354;SDS011;8287;51.644;8.494;2023-04-25T12:02:57;2.53;;;1.80;;
16354;SDS011;8287;51.644;8.494;2023-04-25T12:05:25;5.22;;;1.55;;
16354;SDS011;8287;51.644;8.494;2023-04-25T12:07:53;6.13;;;1.88;;
16354;SDS011;8287;51.644;8.494;2023-04-25T12:10:20;2.92;;;1.30;;
16354;SDS011;8287;51.644;8.494;2023-04-25T12:12:48;3.72;;;1.50;;
16354;SDS011;8287;51.644;8.494;2023-04-25T12:15:15;1.73;;;1.38;;
16354;SDS011;8287;51.644;8.494;2023-04-25T12:17:44;4.38;;;1.50;;
16354;SDS011;8287;51.644;8.494;2023-04-25T12:20:12;2.58;;;1.33;;
16354;SDS011;8287;51.644;8.494;2023-04-25T12:22:41;2.97;;;1.25;;
16354;SDS011;8287;51.644;8.494;2023-04-25T12:25:10;3.80;;;1.50;;
16354;SDS011;8287;51.644;8.494;2023-04-25T12:27:38;4.30;;;1.33;;
16354;SDS011;8287;51.644;8.494;2023-04-25T12:30:09;1.85;;;1.17;;
16354;SDS011;8287;51.644;8.494;2023-04-25T12:32:36;3.67;;;1.20;;
16354;SDS011;8287;51.644;8.494;2023-04-25T12:35:03;2.15;;;1.15;;
16354;SDS011;8287;51.644;8.494;2023-04-25T12:37:31;2.92;;;1.13;;
16354;SDS011;8287;51.644;8.494;2023-04-25T12:39:58;2.25;;;1.75;;
16354;SDS011;8287;51.644;8.494;2023-04-25T12:42:24;9.25;;;1.73;;
16354;SDS011;8287;51.644;8.494;2023-04-25T12:44:51;4.28;;;1.23;;
16354;SDS011;8287;51.644;8.494;2023-04-25T12:47:19;1.65;;;1.17;;
16354;SDS011;8287;51.644;8.494;2023-04-25T12:49:46;3.03;;;1.20;;
16354;SDS011;8287;51.644;8.494;2023-04-25T12:52:12;4.07;;;1.27;;
16354;SDS011;8287;51.644;8.494;2023-04-25T12:54:39;1.48;;;0.82;;
16354;SDS011;8287;51.644;8.494;2023-04-25T12:57:05;3.65;;;1.25;;
16354;SDS011;8287;51.644;8.494;2023-04-25T12:59:32;4.30;;;1.65;;
16354;SDS011;8287;51.644;8.494;2023-04-25T13:01:59;3.00;;;1.42;;
16354;SDS011;8287;51.644;8.494;2023-04-25T13:04:27;3.45;;;1.48;;
16354;SDS011;8287;51.644;8.494;2023-04-25T13:06:53;2.70;;;0.88;;
16354;SDS011;8287;51.644;8.494;2023-04-25T13:09:20;4.55;;;1.33;;
16354;SDS011;8287;51.644;8.494;2023-04-25T13:11:46;2.95;;;1.38;;
16354;SDS011;8287;51.644;8.494;2023-04-25T13:14:13;5.32;;;1.30;;
16354;SDS011;8287;51.644;8.494;2023-04-25T13:16:40;3.15;;;1.42;;
16354;SDS011;8287;51.644;8.494;2023-04-25T13:19:06;8.93;;;1.80;;
16354;SDS011;8287;51.644;8.494;2023-04-25T13:21:37;2.65;;;1.23;;
16354;SDS011;8287;51.644;8.494;2023-04-25T13:24:04;2.67;;;1.20;;
16354;SDS011;8287;51.644;8.494;2023-04-25T13:26:31;6.00;;;1.08;;
16354;SDS011;8287;51.644;8.494;2023-04-25T13:28:58;4.88;;;1.25;;
16354;SDS011;8287;51.644;8.494;2023-04-25T13:31:25;4.90;;;1.95;;
16354;SDS011;8287;51.644;8.494;2023-04-25T13:33:52;2.65;;;1.67;;
16354;SDS011;8287;51.644;8.494;2023-04-25T13:36:18;5.72;;;1.20;;
16354;SDS011;8287;51.644;8.494;2023-04-25T13:38:46;2.33;;;1.35;;
16354;SDS011;8287;51.644;8.494;2023-04-25T13:41:14;6.88;;;2.08;;
16354;SDS011;8287;51.644;8.494;2023-04-25T13:43:43;2.10;;;1.38;;
16354;SDS011;8287;51.644;8.494;2023-04-25T13:46:11;5.05;;;1.23;;
16354;SDS011;8287;51.644;8.494;2023-04-25T13:48:40;3.22;;;1.67;;
16354;SDS011;8287;51.644;8.494;2023-04-25T13:51:11;5.10;;;1.70;;
16354;SDS011;8287;51.644;8.494;2023-04-25T13:53:42;8.70;;;2.00;;
16354;SDS011;8287;51.644;8.494;2023-04-25T13:56:10;5.05;;;1.70;;
16354;SDS011;8287;51.644;8.494;2023-04-25T13:58:37;5.13;;;2.20;;
16354;SDS011;8287;51.644;8.494;2023-04-25T14:01:04;3.60;;;2.00;;
16354;SDS011;8287;51.644;8.494;2023-04-25T14:03:30;7.05;;;2.03;;
16354;SDS011;8287;51.644;8.494;2023-04-25T14:05:57;3.83;;;1.80;;
16354;SDS011;8287;51.644;8.494;2023-04-25T14:08:24;2.50;;;1.63;;
16354;SDS011;8287;51.644;8.494;2023-04-25T14:10:50;4.32;;;1.40;;
16354;SDS011;8287;51.644;8.494;2023-04-25T14:13:18;5.68;;;1.48;;
16354;SDS011;8287;51.644;8.494;2023-04-25T14:15:45;4.47;;;1.52;;
16354;SDS011;8287;51.644;8.494;2023-04-25T14:18:12;3.58;;;1.42;;
16354;SDS011;8287;51.644;8.494;2023-04-25T14:20:38;4.60;;;1.63;;
16354;SDS011;8287;51.644;8.494;2023-04-25T14:23:05;3.38;;;1.10;;
16354;SDS011;8287;51.644;8.494;2023-04-25T14:25:31;4.22;;;1.33;;
16354;SDS011;8287;51.644;8.494;2023-04-25T14:27:58;4.78;;;1.27;;
16354;SDS011;8287;51.644;8.494;2023-04-25T14:30:26;2.30;;;1.45;;
16354;SDS011;8287;51.644;8.494;2023-04-25T14:32:53;3.50;;;0.93;;
16354;SDS011;8287;51.644;8.494;2023-04-25T14:35:20;1.98;;;1.33;;
16354;SDS011;8287;51.644;8.494;2023-04-25T14:37:46;1.55;;;0.95;;
16354;SDS011;8287;51.644;8.494;2023-04-25T14:40:13;3.13;;;1.50;;
16354;SDS011;8287;51.644;8.494;2023-04-25T14:42:42;4.10;;;1.10;;
16354;SDS011;8287;51.644;8.494;2023-04-25T14:45:08;5.70;;;1.40;;
16354;SDS011;8287;51.644;8.494;2023-04-25T14:47:37;2.35;;;0.93;;
16354;SDS011;8287;51.644;8.494;2023-04-25T14:50:04;5.22;;;1.30;;
16354;SDS011;8287;51.644;8.494;2023-04-25T14:52:31;3.95;;;1.75;;
16354;SDS011;8287;51.644;8.494;2023-04-25T14:54:58;2.97;;;0.98;;
16354;SDS011;8287;51.644;8.494;2023-04-25T14:57:29;3.55;;;1.08;;